^^
Saratoga-Weather Station Historical Data
Daily Summary for April 20, 2020 Units:  English    Metric   Both
Daily Weekly Monthly Yearly Custom
  High: Low: Average:
Temperature: 45.5 °F 30 °F 38.7 °F
Dew Point: 41.7 °F 28.6 °F 35.2 °F
Humidity: 96% 71% 88%
Wind Speed: 7mph 0mph 1.1mph
Wind Gust: 8mph - -
Wind- - WSW
Pressure: 30.6 in 30.5 in -
Precipitation: 0 in    
Historical Graphs
 
 
Tabular Data for April 20, 2020
Time Temperature Dew Point Pressure Wind Wind Speed Wind Gust Humidity Rainfall Rate (Hourly) solar
00:04 44.2 °F 41.7 °F 30.5 in WNW 4 mph 8 mph 91% 0 in 0 W/m2
00:09 44.2 °F 41.5 °F 30.5 in West 2.9 mph 6 mph 90% 0 in 0 W/m2
00:14 44.1 °F 41.4 °F 30.5 in WNW 2 mph 8 mph 90% 0 in 0 W/m2
00:19 43.9 °F 41.2 °F 30.5 in West 2.9 mph 8 mph 90% 0 in 0 W/m2
00:24 44.1 °F 41 °F 30.5 in WNW 4 mph 8 mph 89% 0 in 0 W/m2
00:29 44.1 °F 41 °F 30.5 in WNW 2.9 mph 7 mph 89% 0 in 0 W/m2
00:34 44.1 °F 40.8 °F 30.5 in West 4 mph 7 mph 88% 0 in 0 W/m2
00:39 44.1 °F 40.8 °F 30.5 in West 4 mph 7 mph 88% 0 in 0 W/m2
00:44 44.1 °F 40.8 °F 30.5 in WNW 2 mph 4 mph 88% 0 in 0 W/m2
00:49 44.1 °F 40.8 °F 30.5 in WNW 6.9 mph 7 mph 88% 0 in 0 W/m2
00:54 44.1 °F 40.8 °F 30.5 in West 6 mph 8 mph 88% 0 in 0 W/m2
00:59 43.9 °F 40.3 °F 30.5 in WSW 2.9 mph 8 mph 87% 0 in 0 W/m2
01:04 43.9 °F 39.9 °F 30.5 in WNW 2.9 mph 8 mph 86% 0 in 0 W/m2
01:09 43.5 °F 39.9 °F 30.5 in West 2.9 mph 6 mph 87% 0 in 0 W/m2
01:14 43.3 °F 39.7 °F 30.5 in West 0.9 mph 8 mph 87% 0 in 0 W/m2
01:19 43.2 °F 39.6 °F 30.5 in West 0.9 mph 2 mph 87% 0 in 0 W/m2
01:24 43 °F 39.4 °F 30.5 in West 2 mph 4 mph 87% 0 in 0 W/m2
01:29 42.6 °F 39.4 °F 30.5 in WNW 0.9 mph 2 mph 88% 0 in 0 W/m2
01:34 42.4 °F 39.2 °F 30.5 in Calm     88% 0 in 0 W/m2
01:39 42.3 °F 39 °F 30.5 in WNW 0.9 mph 2 mph 88% 0 in 0 W/m2
01:44 41.7 °F 38.7 °F 30.5 in WNW 0.9 mph 1 mph 89% 0 in 0 W/m2
01:49 41.5 °F 38.8 °F 30.5 in WNW 2 mph 2 mph 90% 0 in 0 W/m2
01:54 41.4 °F 38.7 °F 30.5 in WNW 0.9 mph 2 mph 90% 0 in 0 W/m2
01:59 41.2 °F 38.5 °F 30.5 in West 2 mph 3 mph 90% 0 in 0 W/m2
02:04 41.2 °F 38.8 °F 30.5 in West 4 mph 5 mph 91% 0 in 0 W/m2
02:09 41.2 °F 38.8 °F 30.5 in WSW 2.9 mph 4 mph 91% 0 in 0 W/m2
02:14 41.2 °F 38.8 °F 30.5 in WSW 0.9 mph 5 mph 91% 0 in 0 W/m2
02:19 41 °F 38.7 °F 30.5 in WSW 2.9 mph 5 mph 91% 0 in 0 W/m2
02:24 40.8 °F 38.5 °F 30.5 in West 2.9 mph 7 mph 91% 0 in 0 W/m2
02:29 40.8 °F 38.5 °F 30.5 in West 4 mph 6 mph 91% 0 in 0 W/m2
02:34 40.6 °F 38.3 °F 30.5 in WSW 4 mph 8 mph 91% 0 in 0 W/m2
02:39 40.6 °F 38.3 °F 30.5 in WSW 2.9 mph 6 mph 91% 0 in 0 W/m2
02:44 40.6 °F 38.3 °F 30.5 in WNW 0.9 mph 4 mph 91% 0 in 0 W/m2
02:49 40.6 °F 38.3 °F 30.5 in West 0.9 mph 6 mph 91% 0 in 0 W/m2
02:54 40.5 °F 38.1 °F 30.5 in West 2 mph 4 mph 91% 0 in 0 W/m2
02:59 40.5 °F 38.1 °F 30.5 in Calm   6 mph 91% 0 in 0 W/m2
03:04 40.3 °F 37.9 °F 30.5 in Calm   2 mph 91% 0 in 0 W/m2
03:10 39.9 °F 37.6 °F 30.5 in Calm   2 mph 91% 0 in 0 W/m2
03:15 39.7 °F 37.4 °F 30.5 in West 0.9 mph 2 mph 91% 0 in 0 W/m2
03:20 39.6 °F 37.4 °F 30.5 in West 0.9 mph 2 mph 92% 0 in 0 W/m2
03:25 39.2 °F 37 °F 30.5 in West 0.9 mph 1 mph 92% 0 in 0 W/m2
03:30 39 °F 36.9 °F 30.5 in West 0.9 mph 2 mph 92% 0 in 0 W/m2
03:35 38.8 °F 36.7 °F 30.5 in West 0.9 mph 2 mph 92% 0 in 0 W/m2
03:40 38.7 °F 36.9 °F 30.5 in West 0.9 mph 3 mph 93% 0 in 0 W/m2
03:45 38.7 °F 36.9 °F 30.5 in Calm   1 mph 93% 0 in 0 W/m2
03:50 38.5 °F 36.7 °F 30.5 in WSW 2 mph 4 mph 93% 0 in 0 W/m2
03:55 38.5 °F 36.7 °F 30.5 in WSW 0.9 mph 2 mph 93% 0 in 0 W/m2
04:00 38.3 °F 36.5 °F 30.5 in WSW 0.9 mph 4 mph 93% 0 in 0 W/m2
04:05 38.3 °F 36.7 °F 30.5 in Calm   2 mph 94% 0 in 0 W/m2
04:10 38.3 °F 36.7 °F 30.5 in WSW 0.9 mph 2 mph 94% 0 in 0 W/m2
04:15 38.5 °F 36.9 °F 30.5 in WSW 2.9 mph 3 mph 94% 0 in 0 W/m2
04:20 38.3 °F 36.7 °F 30.5 in West 2 mph 2 mph 94% 0 in 0 W/m2
04:25 38.3 °F 36.7 °F 30.5 in Calm   3 mph 94% 0 in 0 W/m2
04:30 38.3 °F 36.7 °F 30.5 in Calm   3 mph 94% 0 in 0 W/m2
04:35 38.3 °F 36.7 °F 30.5 in WSW 0.9 mph 2 mph 94% 0 in 0 W/m2
04:40 38.3 °F 36.7 °F 30.5 in West 0.9 mph 3 mph 94% 0 in 0 W/m2
04:45 38.5 °F 36.9 °F 30.5 in WSW 0.9 mph 3 mph 94% 0 in 0 W/m2
04:50 38.7 °F 37 °F 30.5 in West 2 mph 4 mph 94% 0 in 0 W/m2
04:55 38.7 °F 36.9 °F 30.5 in West 2.9 mph 4 mph 93% 0 in 0 W/m2
05:00 38.8 °F 37 °F 30.5 in SW 2.9 mph 6 mph 93% 0 in 0 W/m2
05:05 38.8 °F 37 °F 30.5 in WSW 0.9 mph 5 mph 93% 0 in 0 W/m2
05:10 39 °F 37.2 °F 30.5 in WNW 2 mph 6 mph 93% 0 in 0 W/m2
05:15 39 °F 36.9 °F 30.5 in WNW 2 mph 3 mph 92% 0 in 0 W/m2
05:20 38.7 °F 36.5 °F 30.5 in WNW 2 mph 5 mph 92% 0 in 0 W/m2
05:25 38.1 °F 36 °F 30.5 in WNW 2.9 mph 3 mph 92% 0 in 0 W/m2
05:30 37.8 °F 35.6 °F 30.5 in West 2 mph 3 mph 92% 0 in 0 W/m2
05:35 37.6 °F 35.4 °F 30.5 in West 0.9 mph 2 mph 92% 0 in 0 W/m2
05:40 37.2 °F 35.4 °F 30.5 in West 2 mph 2 mph 93% 0 in 0 W/m2
05:45 37 °F 35.2 °F 30.5 in West 0.9 mph 2 mph 93% 0 in 0 W/m2
05:50 37 °F 35.2 °F 30.5 in West 2 mph 2 mph 93% 0 in 0 W/m2
05:55 36.9 °F 35.1 °F 30.5 in Calm     93% 0 in 0 W/m2
06:00 36.9 °F 35.2 °F 30.5 in Calm     94% 0 in 0 W/m2
06:05 36.9 °F 35.2 °F 30.5 in Calm     94% 0 in 0 W/m2
06:10 36.7 °F 35.1 °F 30.5 in Calm     94% 0 in 0 W/m2
06:15 36.7 °F 35.1 °F 30.5 in Calm     94% 0 in 0 W/m2
06:20 36.5 °F 34.9 °F 30.5 in Calm     94% 0 in 0 W/m2
06:25 36.5 °F 34.9 °F 30.5 in Calm     94% 0 in 0 W/m2
06:30 36.3 °F 34.7 °F 30.5 in West 2 mph 2 mph 94% 0 in 0 W/m2
06:35 36.3 °F 34.7 °F 30.5 in ESE 2.9 mph 3 mph 94% 0 in 0 W/m2
06:40 36.1 °F 34.5 °F 30.5 in ESE 0.9 mph 2 mph 94% 0 in 0 W/m2
06:45 36.1 °F 34.5 °F 30.5 in Calm   1 mph 94% 0 in 0 W/m2
06:50 36 °F 34.7 °F 30.5 in ESE 0.9 mph 1 mph 95% 0 in 0 W/m2
06:55 36 °F 34.7 °F 30.5 in Calm   1 mph 95% 0 in 0 W/m2
07:00 36 °F 34.7 °F 30.5 in Calm     95% 0 in 0 W/m2
07:05 36 °F 34.7 °F 30.5 in SW 0.9 mph 1 mph 95% 0 in 0 W/m2
07:10 36.3 °F 35.1 °F 30.5 in West 2.9 mph 5 mph 95% 0 in 0 W/m2
07:15 36.9 °F 35.6 °F 30.5 in WSW 0.9 mph 3 mph 95% 0 in 0 W/m2
07:20 37 °F 35.8 °F 30.5 in Calm   5 mph 95% 0 in 0 W/m2
07:25 37 °F 35.8 °F 30.5 in South 2.9 mph 3 mph 95% 0 in 0 W/m2
07:30 36.9 °F 35.6 °F 30.5 in SE 0.9 mph 2 mph 95% 0 in 0 W/m2
07:35 36.5 °F 35.2 °F 30.5 in Calm   2 mph 95% 0 in 0 W/m2
07:40 36.3 °F 35.1 °F 30.5 in Calm   1 mph 95% 0 in 0 W/m2
07:45 36.3 °F 35.1 °F 30.5 in Calm   2 mph 95% 0 in 0 W/m2
07:50 36.3 °F 35.1 °F 30.5 in Calm   2 mph 95% 0 in 0 W/m2
07:55 36.1 °F 34.9 °F 30.5 in Calm     95% 0 in 0 W/m2
08:00 36.1 °F 34.9 °F 30.5 in Calm   2 mph 95% 0 in 5 W/m2
08:05 36.1 °F 34.9 °F 30.5 in Calm     95% 0 in 9 W/m2
08:10 36 °F 34.7 °F 30.5 in Calm     95% 0 in 11 W/m2
08:15 36 °F 34.7 °F 30.5 in SW 0.9 mph 2 mph 95% 0 in 14 W/m2
08:20 36 °F 34.7 °F 30.6 in Calm     95% 0 in 16 W/m2
08:25 36 °F 34.7 °F 30.6 in Calm   2 mph 95% 0 in 19 W/m2
08:30 36 °F 34.7 °F 30.6 in Calm   1 mph 95% 0 in 23 W/m2
08:35 36 °F 34.7 °F 30.6 in Calm     95% 0 in 25 W/m2
08:40 36.1 °F 34.9 °F 30.6 in Calm     95% 0 in 33 W/m2
08:45 36.1 °F 34.9 °F 30.6 in Calm   1 mph 95% 0 in 42 W/m2
08:50 36.1 °F 34.9 °F 30.6 in Calm     95% 0 in 42 W/m2
08:55 36.3 °F 35.1 °F 30.6 in Calm     95% 0 in 46 W/m2
09:00 36.3 °F 35.2 °F 30.6 in Calm     96% 0 in 53 W/m2
09:05 36.7 °F 35.6 °F 30.6 in Calm     96% 0 in 63 W/m2
09:10 36.9 °F 35.8 °F 30.6 in East 2 mph 4 mph 96% 0 in 62 W/m2
09:15 37.2 °F 36.1 °F 30.6 in ESE 2 mph 2 mph 96% 0 in 63 W/m2
09:20 37.4 °F 36.3 °F 30.6 in ESE 0.9 mph 4 mph 96% 0 in 56 W/m2
09:25 37.6 °F 36.5 °F 30.6 in Calm     96% 0 in 65 W/m2
09:30 37.8 °F 36.7 °F 30.6 in Calm     96% 0 in 56 W/m2
09:35 37.9 °F 36.9 °F 30.6 in Calm     96% 0 in 47 W/m2
09:40 38.1 °F 37 °F 30.6 in Calm     96% 0 in 40 W/m2
09:45 38.3 °F 37.2 °F 30.6 in Calm     96% 0 in 39 W/m2
09:50 38.5 °F 37.4 °F 30.6 in WSW 2 mph 2 mph 96% 0 in 35 W/m2
09:55 38.5 °F 37.4 °F 30.6 in Calm   2 mph 96% 0 in 33 W/m2
10:00 38.7 °F 37.6 °F 30.6 in Calm     96% 0 in 33 W/m2
10:05 38.8 °F 37.8 °F 30.6 in Calm   2 mph 96% 0 in 35 W/m2
10:10 39 °F 37.8 °F 30.6 in Calm     95% 0 in 39 W/m2
10:15 39.2 °F 37.9 °F 30.6 in Calm     95% 0 in 40 W/m2
10:21 39.4 °F 38.1 °F 30.6 in Calm   2 mph 95% 0 in 44 W/m2
10:26 39.6 °F 37.9 °F 30.6 in Calm     94% 0 in 47 W/m2
10:31 39.7 °F 38.1 °F 30.6 in Calm   2 mph 94% 0 in 46 W/m2
10:36 39.9 °F 38.3 °F 30.6 in SW 0.9 mph 2 mph 94% 0 in 60 W/m2
10:41 40.1 °F 38.5 °F 30.6 in SW 0.9 mph 1 mph 94% 0 in 65 W/m2
10:46 40.5 °F 38.8 °F 30.6 in WSW 2 mph 3 mph 94% 0 in 63 W/m2
10:51 40.8 °F 39 °F 30.6 in NW 4 mph 6 mph 93% 0 in 88 W/m2
10:56 41.4 °F 39.2 °F 30.6 in WNW 0.9 mph 3 mph 92% 0 in 105 W/m2
11:01 41.7 °F 39 °F 30.6 in WSW 2.9 mph 6 mph 90% 0 in 97 W/m2
11:06 41.9 °F 38.8 °F 30.6 in WSW 0.9 mph 4 mph 89% 0 in 49 W/m2
11:11 42.1 °F 39 °F 30.6 in West 2 mph 6 mph 89% 0 in 70 W/m2
11:16 42.1 °F 38.8 °F 30.6 in West 2 mph 5 mph 88% 0 in 56 W/m2
11:21 42.3 °F 39 °F 30.6 in WNW 2 mph 4 mph 88% 0 in 65 W/m2
11:26 42.3 °F 39 °F 30.6 in West 2.9 mph 3 mph 88% 0 in 53 W/m2
11:31 42.4 °F 38.8 °F 30.6 in WNW 2 mph 3 mph 87% 0 in 79 W/m2
11:36 42.6 °F 39 °F 30.6 in West 2.9 mph 4 mph 87% 0 in 67 W/m2
11:41 42.8 °F 38.8 °F 30.6 in WSW 2.9 mph 4 mph 86% 0 in 77 W/m2
11:46 43 °F 39 °F 30.6 in West 0.9 mph 4 mph 86% 0 in 76 W/m2
11:51 43.2 °F 39.2 °F 30.6 in WSW 2 mph 6 mph 86% 0 in 81 W/m2
11:56 43.2 °F 39 °F 30.6 in WNW 2.9 mph 3 mph 85% 0 in 83 W/m2
12:01 43.3 °F 39.2 °F 30.6 in WSW 4 mph 4 mph 85% 0 in 97 W/m2
12:06 43.5 °F 39 °F 30.6 in WSW 2.9 mph 6 mph 84% 0 in 137 W/m2
12:11 43.9 °F 39 °F 30.6 in West 2.9 mph 5 mph 83% 0 in 149 W/m2
12:16 44.1 °F 38.8 °F 30.6 in WNW 0.9 mph 3 mph 82% 0 in 130 W/m2
12:21 44.2 °F 38.8 °F 30.6 in North 2.9 mph 5 mph 81% 0 in 132 W/m2
12:26 44.4 °F 37.9 °F 30.6 in Calm   6 mph 78% 0 in 125 W/m2
12:31 44.8 °F 37.4 °F 30.6 in NW 0.9 mph 3 mph 75% 0 in 142 W/m2
12:36 45 °F 36.9 °F 30.6 in NE 0.9 mph 4 mph 73% 0 in 149 W/m2
12:41 45.1 °F 36.3 °F 30.6 in NNW 2 mph 6 mph 71% 0 in 151 W/m2
12:46 45.3 °F 36.5 °F 30.6 in NW 2 mph 3 mph 71% 0 in 155 W/m2
12:51 45.3 °F 36.9 °F 30.6 in ENE 2 mph 4 mph 72% 0 in 144 W/m2
12:56 45.5 °F 37.8 °F 30.6 in Calm   2 mph 74% 0 in 120 W/m2
13:01 45.5 °F 38.7 °F 30.6 in WNW 2 mph 2 mph 77% 0 in 91 W/m2
13:06 45.3 °F 37.9 °F 30.6 in ESE 0.9 mph 3 mph 75% 0 in 102 W/m2
13:11 45.3 °F 36.9 °F 30.6 in WNW 2 mph 4 mph 72% 0 in 116 W/m2
13:16 45.3 °F 38.1 °F 30.6 in South 2 mph 3 mph 76% 0 in 109 W/m2
13:21 45.1 °F 37.9 °F 30.6 in Calm   1 mph 76% 0 in 128 W/m2
13:26 45.3 °F 38.5 °F 30.6 in Calm     77% 0 in 134 W/m2
13:31 45.3 °F 38.1 °F 30.6 in ENE 2 mph 2 mph 76% 0 in 130 W/m2
13:36 45.3 °F 37.6 °F 30.6 in Calm   1 mph 74% 0 in 98 W/m2
13:41 45.3 °F 36.9 °F 30.6 in WNW 4 mph 7 mph 72% 0 in 83 W/m2
13:46 45.3 °F 36.9 °F 30.6 in WNW 2.9 mph 4 mph 72% 0 in 102 W/m2
13:51 45.3 °F 37.6 °F 30.6 in WNW 2 mph 4 mph 74% 0 in 113 W/m2
13:56 45.1 °F 37.4 °F 30.6 in WNW 2 mph 5 mph 74% 0 in 95 W/m2
14:01 45 °F 37.2 °F 30.6 in WNW 7 mph 7 mph 74% 0 in 97 W/m2
14:06 45 °F 37.6 °F 30.6 in WNW 2 mph 3 mph 75% 0 in 114 W/m2
14:11 44.8 °F 36.7 °F 30.6 in SW 2.9 mph 4 mph 73% 0 in 95 W/m2
14:16 44.8 °F 36.7 °F 30.6 in West 2 mph 4 mph 73% 0 in 79 W/m2
14:21 44.8 °F 37 °F 30.6 in West 2 mph 3 mph 74% 0 in 72 W/m2
14:26 44.8 °F 37 °F 30.6 in WSW 2.9 mph 4 mph 74% 0 in 86 W/m2
14:31 44.6 °F 36.5 °F 30.6 in WNW 0.9 mph 7 mph 73% 0 in 83 W/m2
14:36 44.4 °F 36 °F 30.6 in West 2 mph 3 mph 72% 0 in 76 W/m2
14:41 44.2 °F 35.8 °F 30.6 in West 0.9 mph 5 mph 72% 0 in 70 W/m2
14:46 44.2 °F 35.8 °F 30.6 in WNW 2.9 mph 3 mph 72% 0 in 56 W/m2
14:51 44.1 °F 35.6 °F 30.6 in WSW 4 mph 4 mph 72% 0 in 46 W/m2
14:56 43.9 °F 35.4 °F 30.6 in West 2.9 mph 3 mph 72% 0 in 42 W/m2
15:01 43.7 °F 35.2 °F 30.6 in WSW 0.9 mph 2 mph 72% 0 in 33 W/m2
15:06 43.5 °F 35.4 °F 30.6 in West 2 mph 3 mph 73% 0 in 26 W/m2
15:11 43.3 °F 35.2 °F 30.6 in West 0.9 mph 3 mph 73% 0 in 30 W/m2
15:16 43.2 °F 35.4 °F 30.6 in Calm   1 mph 74% 0 in 28 W/m2
15:21 43 °F 35.6 °F 30.6 in WSW 0.9 mph 2 mph 75% 0 in 23 W/m2
15:26 42.8 °F 35.8 °F 30.6 in Calm   1 mph 76% 0 in 25 W/m2
15:31 42.4 °F 35.8 °F 30.6 in Calm   2 mph 77% 0 in 23 W/m2
15:36 42.3 °F 36 °F 30.6 in Calm   1 mph 78% 0 in 21 W/m2
15:41 42.1 °F 35.4 °F 30.6 in WSW 0.9 mph 2 mph 77% 0 in 19 W/m2
15:46 41.7 °F 35.4 °F 30.6 in Calm   1 mph 78% 0 in 18 W/m2
15:51 41.5 °F 35.2 °F 30.6 in West 0.9 mph 1 mph 78% 0 in 18 W/m2
15:56 41.5 °F 34.5 °F 30.6 in West 2 mph 2 mph 76% 0 in 14 W/m2
16:01 41.7 °F 34.7 °F 30.6 in WSW 2 mph 4 mph 76% 0 in 12 W/m2
16:06 41.7 °F 34.3 °F 30.6 in WSW 0.9 mph 2 mph 75% 0 in 12 W/m2
16:11 41.5 °F 34.2 °F 30.6 in Calm   2 mph 75% 0 in 12 W/m2
16:16 41.5 °F 34.2 °F 30.6 in West 2 mph 3 mph 75% 0 in 12 W/m2
16:21 41.5 °F 34.2 °F 30.6 in West 0.9 mph 4 mph 75% 0 in 14 W/m2
16:26 41.5 °F 34.5 °F 30.6 in West 0.9 mph 1 mph 76% 0 in 14 W/m2
16:31 41.2 °F 34.2 °F 30.6 in Calm   2 mph 76% 0 in 9 W/m2
16:36 41 °F 34.3 °F 30.6 in Calm   2 mph 77% 0 in 7 W/m2
16:41 40.8 °F 34.2 °F 30.6 in Calm   1 mph 77% 0 in 5 W/m2
16:46 40.6 °F 34.3 °F 30.6 in Calm   1 mph 78% 0 in 5 W/m2
16:51 40.5 °F 34.2 °F 30.6 in West 0.9 mph 3 mph 78% 0 in 0 W/m2
16:56 40.3 °F 33.6 °F 30.6 in WSW 4 mph 4 mph 77% 0 in 0 W/m2
17:01 40.3 °F 33.6 °F 30.6 in WSW 5 mph 5 mph 77% 0 in 0 W/m2
17:06 40.5 °F 33.4 °F 30.6 in WSW 0.9 mph 3 mph 76% 0 in 0 W/m2
17:11 40.3 °F 33.3 °F 30.6 in West 0.9 mph 5 mph 76% 0 in 0 W/m2
17:16 40.1 °F 33.1 °F 30.6 in West 2.9 mph 3 mph 76% 0 in 0 W/m2
17:22 40.1 °F 33.1 °F 30.6 in West 2.9 mph 5 mph 76% 0 in 0 W/m2
17:27 40.3 °F 33.1 °F 30.6 in West 0.9 mph 3 mph 75% 0 in 0 W/m2
17:32 40.3 °F 33.1 °F 30.6 in SW 0.9 mph 6 mph 75% 0 in 0 W/m2
17:37 40.1 °F 32.9 °F 30.6 in West 0.9 mph 3 mph 75% 0 in 0 W/m2
17:42 39.9 °F 32.9 °F 30.6 in Calm   1 mph 76% 0 in 0 W/m2
17:47 39.6 °F 33.6 °F 30.6 in Calm     79% 0 in 0 W/m2
17:52 39 °F 33.1 °F 30.6 in Calm     79% 0 in 0 W/m2
17:57 38.7 °F 33.3 °F 30.6 in Calm     81% 0 in 0 W/m2
18:02 37.9 °F 32.9 °F 30.6 in West 0.9 mph 2 mph 82% 0 in 0 W/m2
18:07 37.6 °F 32.9 °F 30.6 in Calm   1 mph 83% 0 in 0 W/m2
18:12 37 °F 32.7 °F 30.6 in Calm     84% 0 in 0 W/m2
18:17 36.9 °F 32.5 °F 30.6 in Calm     84% 0 in 0 W/m2
18:22 36.3 °F 32.2 °F 30.6 in Calm   1 mph 85% 0 in 0 W/m2
18:27 36.1 °F 32.4 °F 30.6 in Calm     86% 0 in 0 W/m2
18:32 36 °F 32.2 °F 30.6 in Calm     86% 0 in 0 W/m2
18:37 35.8 °F 32 °F 30.6 in Calm     86% 0 in 0 W/m2
18:42 35.4 °F 32 °F 30.6 in Calm     87% 0 in 0 W/m2
18:47 35.2 °F 31.8 °F 30.6 in Calm     87% 0 in 0 W/m2
18:52 35.1 °F 31.6 °F 30.6 in Calm     87% 0 in 0 W/m2
18:57 34.9 °F 31.6 °F 30.6 in Calm     88% 0 in 0 W/m2
19:02 34.7 °F 31.5 °F 30.6 in Calm     88% 0 in 0 W/m2
19:07 34.5 °F 31.6 °F 30.6 in Calm     89% 0 in 0 W/m2
19:12 34.3 °F 31.5 °F 30.6 in West 0.9 mph 1 mph 89% 0 in 0 W/m2
19:17 34.3 °F 31.5 °F 30.6 in Calm   1 mph 89% 0 in 0 W/m2
19:22 34.2 °F 31.5 °F 30.6 in Calm   1 mph 90% 0 in 0 W/m2
19:27 34.2 °F 31.5 °F 30.6 in Calm     90% 0 in 0 W/m2
19:32 34.2 °F 31.5 °F 30.6 in Calm   1 mph 90% 0 in 0 W/m2
19:37 34.2 °F 31.5 °F 30.6 in Calm     90% 0 in 0 W/m2
19:42 34.2 °F 31.5 °F 30.6 in Calm     90% 0 in 0 W/m2
19:47 34.2 °F 31.5 °F 30.6 in Calm     90% 0 in 0 W/m2
19:52 34.2 °F 31.5 °F 30.6 in Calm     90% 0 in 0 W/m2
19:57 34 °F 31.3 °F 30.6 in Calm     90% 0 in 0 W/m2
20:02 34 °F 31.3 °F 30.6 in Calm     90% 0 in 0 W/m2
20:07 33.6 °F 31.3 °F 30.6 in Calm     91% 0 in 0 W/m2
20:12 33.6 °F 31.3 °F 30.6 in Calm     91% 0 in 0 W/m2
20:17 33.6 °F 31.3 °F 30.6 in Calm     91% 0 in 0 W/m2
20:22 33.4 °F 31.1 °F 30.6 in Calm     91% 0 in 0 W/m2
20:27 33.3 °F 30.9 °F 30.6 in Calm     91% 0 in 0 W/m2
20:32 33.1 °F 30.7 °F 30.6 in Calm     91% 0 in 0 W/m2
20:37 32.9 °F 30.6 °F 30.6 in Calm     91% 0 in 0 W/m2
20:42 32.7 °F 30.4 °F 30.6 in Calm     91% 0 in 0 W/m2
20:47 32.7 °F 30.4 °F 30.6 in Calm     91% 0 in 0 W/m2
20:52 32.5 °F 30.6 °F 30.6 in Calm     92% 0 in 0 W/m2
20:57 32.5 °F 30.6 °F 30.6 in Calm     92% 0 in 0 W/m2
21:02 32.4 °F 30.4 °F 30.6 in Calm     92% 0 in 0 W/m2
21:07 32.4 °F 30.4 °F 30.6 in Calm     92% 0 in 0 W/m2
21:12 32.2 °F 30.2 °F 30.6 in Calm     92% 0 in 0 W/m2
21:17 32 °F 30 °F 30.6 in Calm     92% 0 in 0 W/m2
21:22 31.8 °F 29.8 °F 30.6 in Calm     92% 0 in 0 W/m2
21:27 31.8 °F 30 °F 30.6 in Calm     93% 0 in 0 W/m2
21:32 31.6 °F 29.7 °F 30.6 in Calm     92% 0 in 0 W/m2
21:37 31.6 °F 29.7 °F 30.6 in Calm     92% 0 in 0 W/m2
21:42 31.5 °F 29.7 °F 30.6 in Calm     93% 0 in 0 W/m2
21:47 31.5 °F 29.7 °F 30.6 in Calm     93% 0 in 0 W/m2
21:52 31.5 °F 29.7 °F 30.6 in Calm     93% 0 in 0 W/m2
21:57 31.5 °F 29.7 °F 30.6 in Calm     93% 0 in 0 W/m2
22:02 31.3 °F 29.5 °F 30.6 in Calm     93% 0 in 0 W/m2
22:07 31.3 °F 29.5 °F 30.6 in Calm     93% 0 in 0 W/m2
22:12 30.9 °F 29.1 °F 30.6 in Calm     93% 0 in 0 W/m2
22:17 30.9 °F 29.1 °F 30.6 in Calm     93% 0 in 0 W/m2
22:22 30.9 °F 29.1 °F 30.6 in Calm     93% 0 in 0 W/m2
22:27 30.9 °F 29.5 °F 30.6 in Calm     94% 0 in 0 W/m2
22:32 30.9 °F 29.5 °F 30.6 in Calm     94% 0 in 0 W/m2
22:37 30.9 °F 29.5 °F 30.6 in Calm     94% 0 in 0 W/m2
22:42 30.9 °F 29.5 °F 30.6 in Calm     94% 0 in 0 W/m2
22:47 30.7 °F 29.3 °F 30.6 in Calm     94% 0 in 0 W/m2
22:52 30.7 °F 29.3 °F 30.6 in Calm     94% 0 in 0 W/m2
22:57 30.7 °F 29.3 °F 30.6 in Calm     94% 0 in 0 W/m2
23:02 30.6 °F 29.1 °F 30.6 in Calm     94% 0 in 0 W/m2
23:07 30.6 °F 29.1 °F 30.6 in Calm     94% 0 in 0 W/m2
23:12 30.6 °F 29.1 °F 30.6 in Calm     94% 0 in 0 W/m2
23:17 30.6 °F 29.1 °F 30.6 in Calm     94% 0 in 0 W/m2
23:22 30.6 °F 29.1 °F 30.6 in Calm     94% 0 in 0 W/m2
23:27 30.6 °F 29.1 °F 30.6 in Calm     94% 0 in 0 W/m2
23:32 30.6 °F 29.1 °F 30.6 in Calm     94% 0 in 0 W/m2
23:37 30.4 °F 28.9 °F 30.6 in Calm     94% 0 in 0 W/m2
23:42 30.2 °F 28.8 °F 30.6 in Calm     94% 0 in 0 W/m2
23:47 30 °F 28.6 °F 30.6 in Calm     94% 0 in 0 W/m2
23:52 30 °F 28.6 °F 30.6 in Calm     94% 0 in 0 W/m2
23:57 30 °F 28.6 °F 30.6 in Calm     94% 0 in 0 W/m2
Juneau County Weather
Compliments of Weather Underground - 4 mb